Time;durP1;ratioP1;P1;durP2;ratioP2;P2;SDS_P1;SDS_P2;PMS_P1;PMS_P2;Temp;Humidity;BMP_temperature;BMP_pressure;BME280_temperature;BME280_humidity;BME280_pressure;Samples;Min_cycle;Max_cycle;Signal;HPM_P1;HPM_P2
2021/06/26 00:00:52;;;;;;;5.15;4.28;;;;;;;;;;4986690;28;20042;-81
2021/06/26 00:03:19;;;;;;;9.05;5.15;;;;;;;;;;4997118;28;20686;-81
2021/06/26 00:05:46;;;;;;;6.15;4.63;;;;;;;;;;4997077;28;20053;-81
2021/06/26 00:08:12;;;;;;;8.40;4.78;;;;;;;;;;4997148;28;20102;-81
2021/06/26 00:10:38;;;;;;;6.13;4.22;;;;;;;;;;4996476;28;20061;-81
2021/06/26 00:13:06;;;;;;;6.07;4.68;;;;;;;;;;4975391;28;20046;-83
2021/06/26 00:15:33;;;;;;;6.85;4.90;;;;;;;;;;5000679;28;20043;-81
2021/06/26 00:17:59;;;;;;;7.30;4.93;;;;;;;;;;4985286;28;20085;-82
2021/06/26 00:20:26;;;;;;;5.45;4.35;;;;;;;;;;4994631;28;20046;-82
2021/06/26 00:22:53;;;;;;;5.20;4.20;;;;;;;;;;4978043;28;20388;-83
2021/06/26 00:25:22;;;;;;;5.78;4.07;;;;;;;;;;4997243;28;20049;-83
2021/06/26 00:27:48;;;;;;;5.95;4.57;;;;;;;;;;4990322;28;20467;-83
2021/06/26 00:30:17;;;;;;;7.05;4.40;;;;;;;;;;4994164;28;20054;-83
2021/06/26 00:32:43;;;;;;;7.43;5.03;;;;;;;;;;5004892;28;20072;-82
2021/06/26 00:35:11;;;;;;;6.20;4.13;;;;;;;;;;4997766;28;20077;-84
2021/06/26 00:37:38;;;;;;;7.78;4.22;;;;;;;;;;4997599;28;20042;-81
2021/06/26 00:40:06;;;;;;;11.23;4.95;;;;;;;;;;4998220;28;20043;-81
2021/06/26 00:42:34;;;;;;;32.92;4.78;;;;;;;;;;4992428;28;20053;-82
2021/06/26 00:45:01;;;;;;;23.08;4.63;;;;;;;;;;4998620;28;20054;-82
2021/06/26 00:47:28;;;;;;;5.03;3.30;;;;;;;;;;4999722;28;20126;-82
2021/06/26 00:49:55;;;;;;;17.05;3.92;;;;;;;;;;4999760;28;20046;-84
2021/06/26 00:52:21;;;;;;;12.77;4.40;;;;;;;;;;4999340;28;20046;-81
2021/06/26 00:54:48;;;;;;;12.00;5.00;;;;;;;;;;4999479;28;20534;-83
2021/06/26 00:57:15;;;;;;;9.13;4.15;;;;;;;;;;4999121;28;20046;-81
2021/06/26 00:59:41;;;;;;;6.78;3.78;;;;;;;;;;4997005;28;20506;-82
2021/06/26 01:02:08;;;;;;;6.60;4.10;;;;;;;;;;4981116;28;20047;-83
2021/06/26 01:04:36;;;;;;;5.18;4.10;;;;;;;;;;4980858;28;20107;-83
2021/06/26 01:07:02;;;;;;;4.50;3.35;;;;;;;;;;4982588;28;20053;-84
2021/06/26 01:09:28;;;;;;;5.95;3.95;;;;;;;;;;5000880;28;20058;-85
2021/06/26 01:11:57;;;;;;;5.05;3.65;;;;;;;;;;5002622;28;20047;-84
2021/06/26 01:14:24;;;;;;;5.32;3.78;;;;;;;;;;4984607;28;20053;-82
2021/06/26 01:16:51;;;;;;;6.53;4.05;;;;;;;;;;4983918;28;20054;-82
2021/06/26 01:19:17;;;;;;;5.25;3.40;;;;;;;;;;4984064;28;20051;-84
2021/06/26 01:21:45;;;;;;;6.90;3.92;;;;;;;;;;4984397;28;20051;-83
2021/06/26 01:24:13;;;;;;;7.95;3.65;;;;;;;;;;4983446;28;20067;-83
2021/06/26 01:26:40;;;;;;;5.70;4.03;;;;;;;;;;4985693;28;20051;-84
2021/06/26 01:29:09;;;;;;;5.50;3.88;;;;;;;;;;5003834;28;20073;-83
2021/06/26 01:31:36;;;;;;;5.60;3.65;;;;;;;;;;5003326;28;20043;-83
2021/06/26 01:34:03;;;;;;;5.70;3.90;;;;;;;;;;4985811;28;20398;-84
2021/06/26 01:36:29;;;;;;;5.65;3.70;;;;;;;;;;5003229;28;20046;-83
2021/06/26 01:38:57;;;;;;;5.70;4.38;;;;;;;;;;4987540;28;20531;-81
2021/06/26 01:41:25;;;;;;;5.15;3.83;;;;;;;;;;4990320;28;20047;-81
2021/06/26 01:43:52;;;;;;;4.65;3.58;;;;;;;;;;4993953;28;20510;-81
2021/06/26 01:46:18;;;;;;;7.95;5.07;;;;;;;;;;4993627;28;20423;-81
2021/06/26 01:48:45;;;;;;;5.32;3.60;;;;;;;;;;4993471;28;20538;-82
2021/06/26 01:51:11;;;;;;;7.03;4.28;;;;;;;;;;4994330;28;20050;-83
2021/06/26 01:53:38;;;;;;;5.57;4.35;;;;;;;;;;4994379;28;20042;-82
2021/06/26 01:56:05;;;;;;;8.68;3.85;;;;;;;;;;4993974;28;20055;-81
2021/06/26 01:58:33;;;;;;;5.07;3.88;;;;;;;;;;4979054;28;20050;-81
2021/06/26 02:00:59;;;;;;;7.40;4.72;;;;;;;;;;4997614;28;20046;-82
2021/06/26 02:03:26;;;;;;;5.15;3.78;;;;;;;;;;4997446;28;20046;-82
2021/06/26 02:05:52;;;;;;;5.03;3.58;;;;;;;;;;4979693;28;20055;-82
2021/06/26 02:08:19;;;;;;;5.13;3.70;;;;;;;;;;4977394;28;20059;-82
2021/06/26 02:10:45;;;;;;;4.85;3.50;;;;;;;;;;4977223;28;20504;-84
2021/06/26 02:13:12;;;;;;;4.68;3.42;;;;;;;;;;4977442;28;20056;-82
2021/06/26 02:15:39;;;;;;;3.83;2.75;;;;;;;;;;4976564;28;20061;-81
2021/06/26 02:18:06;;;;;;;5.18;2.78;;;;;;;;;;4976875;28;20051;-82
2021/06/26 02:20:32;;;;;;;3.60;2.55;;;;;;;;;;4977437;28;20381;-81
2021/06/26 02:22:59;;;;;;;4.47;2.80;;;;;;;;;;4977568;28;20047;-81
2021/06/26 02:25:25;;;;;;;3.70;2.55;;;;;;;;;;4976792;28;20512;-85
2021/06/26 02:27:52;;;;;;;3.42;2.10;;;;;;;;;;4977011;28;20043;-81
2021/06/26 02:30:19;;;;;;;3.97;2.65;;;;;;;;;;4977023;28;20451;-81
2021/06/26 02:32:47;;;;;;;2.70;2.17;;;;;;;;;;4977112;28;20046;-82
2021/06/26 02:35:13;;;;;;;6.38;2.30;;;;;;;;;;4976977;28;20047;-81
2021/06/26 02:37:40;;;;;;;3.38;2.40;;;;;;;;;;4978657;28;20522;-82
2021/06/26 02:40:08;;;;;;;5.25;2.67;;;;;;;;;;4996674;28;20046;-81
2021/06/26 02:42:35;;;;;;;4.45;2.70;;;;;;;;;;4996171;28;20073;-82
2021/06/26 02:45:01;;;;;;;3.60;2.40;;;;;;;;;;4996822;28;20047;-81
2021/06/26 02:47:27;;;;;;;4.85;2.80;;;;;;;;;;4996153;28;20055;-81
2021/06/26 02:49:55;;;;;;;3.35;2.55;;;;;;;;;;4996213;28;20411;-81
2021/06/26 02:52:23;;;;;;;4.80;2.67;;;;;;;;;;4996337;28;20053;-81
2021/06/26 02:54:49;;;;;;;4.07;2.75;;;;;;;;;;4996421;28;20141;-81
2021/06/26 02:57:16;;;;;;;4.10;2.80;;;;;;;;;;4992141;28;20042;-81
2021/06/26 02:59:44;;;;;;;3.50;2.38;;;;;;;;;;4993005;28;20042;-81
2021/06/26 03:02:10;;;;;;;3.55;2.25;;;;;;;;;;4996013;28;20534;-83
2021/06/26 03:04:37;;;;;;;6.43;2.63;;;;;;;;;;4996162;28;20049;-81
2021/06/26 03:07:05;;;;;;;4.63;3.20;;;;;;;;;;4995924;28;20063;-81
2021/06/26 03:09:31;;;;;;;3.65;2.40;;;;;;;;;;4994495;28;20051;-81
2021/06/26 03:11:58;;;;;;;5.60;2.55;;;;;;;;;;4976186;28;20054;-81
2021/06/26 03:14:24;;;;;;;4.35;2.35;;;;;;;;;;4976175;28;20051;-81
2021/06/26 03:16:51;;;;;;;4.10;2.20;;;;;;;;;;4976491;28;20047;-81
2021/06/26 03:19:17;;;;;;;3.75;2.17;;;;;;;;;;4976694;28;20058;-81
2021/06/26 03:21:44;;;;;;;3.22;2.03;;;;;;;;;;4976401;28;20051;-81
2021/06/26 03:24:12;;;;;;;4.28;2.35;;;;;;;;;;4976419;28;20435;-81
2021/06/26 03:26:38;;;;;;;4.40;2.03;;;;;;;;;;4976341;28;20054;-80
2021/06/26 03:29:05;;;;;;;3.00;2.20;;;;;;;;;;4978509;28;20043;-81
2021/06/26 03:31:32;;;;;;;3.50;2.20;;;;;;;;;;4988344;28;20047;-80
2021/06/26 03:33:58;;;;;;;3.55;2.47;;;;;;;;;;4977105;28;20051;-80
2021/06/26 03:36:26;;;;;;;3.42;2.03;;;;;;;;;;4978657;28;20057;-80
2021/06/26 03:38:53;;;;;;;5.70;2.40;;;;;;;;;;4976775;28;20058;-80
2021/06/26 03:41:23;;;;;;;5.10;2.30;;;;;;;;;;4976235;28;20043;-82
2021/06/26 03:43:50;;;;;;;2.97;2.13;;;;;;;;;;4976470;28;20051;-80
2021/06/26 03:46:17;;;;;;;3.72;2.10;;;;;;;;;;4975783;28;20578;-80
2021/06/26 03:48:43;;;;;;;3.47;2.38;;;;;;;;;;4976078;28;20051;-81
2021/06/26 03:51:10;;;;;;;3.40;2.50;;;;;;;;;;4976415;28;20054;-81
2021/06/26 03:53:36;;;;;;;4.22;2.63;;;;;;;;;;4994230;28;20133;-81
2021/06/26 03:56:03;;;;;;;4.97;2.10;;;;;;;;;;4995024;28;20056;-80
2021/06/26 03:58:31;;;;;;;3.30;2.05;;;;;;;;;;4995185;28;20050;-81
2021/06/26 04:00:57;;;;;;;2.70;2.08;;;;;;;;;;4994844;28;20042;-81
2021/06/26 04:03:24;;;;;;;3.67;2.20;;;;;;;;;;4995008;28;20054;-80
2021/06/26 04:05:51;;;;;;;3.90;2.00;;;;;;;;;;4994442;28;20407;-81
2021/06/26 04:08:18;;;;;;;5.78;2.78;;;;;;;;;;4994875;28;20049;-83
2021/06/26 04:10:45;;;;;;;3.55;2.30;;;;;;;;;;4989334;28;20050;-83
2021/06/26 04:13:11;;;;;;;4.65;3.40;;;;;;;;;;4976400;28;20511;-81
2021/06/26 04:15:39;;;;;;;10.98;3.55;;;;;;;;;;4994896;28;20056;-82
2021/06/26 04:18:06;;;;;;;10.15;3.08;;;;;;;;;;4994927;28;20042;-82
2021/06/26 04:20:32;;;;;;;6.00;2.63;;;;;;;;;;4994325;28;20054;-81
2021/06/26 04:22:59;;;;;;;4.50;2.55;;;;;;;;;;4994964;28;20042;-81
2021/06/26 04:25:27;;;;;;;7.18;4.07;;;;;;;;;;4990135;28;20047;-81
2021/06/26 04:27:54;;;;;;;7.18;4.35;;;;;;;;;;4975748;28;20047;-81
2021/06/26 04:30:20;;;;;;;9.80;4.85;;;;;;;;;;4975606;28;20047;-82
2021/06/26 04:32:48;;;;;;;8.88;4.22;;;;;;;;;;4991083;28;20068;-81
2021/06/26 04:35:18;;;;;;;6.82;3.83;;;;;;;;;;4994826;28;20042;-82
2021/06/26 04:37:45;;;;;;;9.07;4.03;;;;;;;;;;4995439;28;20042;-81
2021/06/26 04:40:12;;;;;;;7.22;4.05;;;;;;;;;;4995262;28;20057;-82
2021/06/26 04:42:39;;;;;;;9.85;4.97;;;;;;;;;;4995233;28;20514;-81
2021/06/26 04:45:06;;;;;;;12.32;4.60;;;;;;;;;;4995184;28;20046;-81
2021/06/26 04:47:33;;;;;;;12.25;5.07;;;;;;;;;;4995191;28;20069;-81
2021/06/26 04:50:02;;;;;;;7.82;4.97;;;;;;;;;;4995039;28;20055;-81
2021/06/26 04:52:29;;;;;;;8.40;3.70;;;;;;;;;;4994501;28;20554;-83
2021/06/26 04:54:55;;;;;;;4.78;3.53;;;;;;;;;;4995114;28;20054;-82
2021/06/26 04:57:22;;;;;;;4.35;3.08;;;;;;;;;;4995065;28;20055;-82
2021/06/26 04:59:48;;;;;;;5.53;3.10;;;;;;;;;;4994938;28;20057;-82
2021/06/26 05:02:15;;;;;;;4.25;3.00;;;;;;;;;;4980216;28;20047;-85
2021/06/26 05:04:41;;;;;;;6.28;4.07;;;;;;;;;;4976801;28;20058;-81
2021/06/26 05:07:09;;;;;;;10.15;4.40;;;;;;;;;;4977771;28;20042;-81
2021/06/26 05:09:35;;;;;;;18.92;7.03;;;;;;;;;;4995695;28;20057;-82
2021/06/26 05:12:02;;;;;;;17.02;6.35;;;;;;;;;;4996265;28;20053;-81
2021/06/26 05:14:29;;;;;;;6.70;4.55;;;;;;;;;;4996940;28;20097;-81
2021/06/26 05:16:55;;;;;;;15.52;5.85;;;;;;;;;;4996463;28;20058;-83
2021/06/26 05:19:21;;;;;;;8.82;6.07;;;;;;;;;;4990894;28;20065;-81
2021/06/26 05:21:48;;;;;;;7.65;5.88;;;;;;;;;;4982004;28;20054;-82
2021/06/26 05:24:16;;;;;;;8.55;5.72;;;;;;;;;;4977276;28;20058;-85
2021/06/26 05:26:42;;;;;;;6.90;5.40;;;;;;;;;;4995916;28;20046;-81
2021/06/26 05:29:09;;;;;;;10.70;5.88;;;;;;;;;;4998087;28;20097;-81
2021/06/26 05:31:36;;;;;;;8.07;6.30;;;;;;;;;;4998246;28;20057;-82
2021/06/26 05:34:02;;;;;;;8.05;5.43;;;;;;;;;;4990597;28;20061;-83
2021/06/26 05:36:29;;;;;;;11.73;5.80;;;;;;;;;;4982691;28;20047;-80
2021/06/26 05:38:55;;;;;;;8.85;5.90;;;;;;;;;;4995496;28;20039;-81
2021/06/26 05:41:23;;;;;;;8.25;5.30;;;;;;;;;;4990586;28;20455;-82
2021/06/26 05:43:50;;;;;;;8.80;5.15;;;;;;;;;;4987312;28;20051;-85
2021/06/26 05:46:16;;;;;;;13.65;6.10;;;;;;;;;;4987777;28;20051;-82
2021/06/26 05:48:43;;;;;;;9.57;6.07;;;;;;;;;;4986333;28;20587;-82
2021/06/26 05:51:14;;;;;;;7.78;6.15;;;;;;;;;;5001971;28;20050;-82
2021/06/26 05:53:40;;;;;;;9.95;6.95;;;;;;;;;;5005159;28;20081;-84
2021/06/26 05:56:07;;;;;;;12.65;6.97;;;;;;;;;;4995607;28;20129;-83
2021/06/26 05:58:37;;;;;;;18.23;7.72;;;;;;;;;;5003230;28;20053;-83
2021/06/26 06:01:03;;;;;;;14.52;7.45;;;;;;;;;;5002485;28;20570;-84
2021/06/26 06:03:30;;;;;;;12.82;8.10;;;;;;;;;;5000797;28;20137;-84
2021/06/26 06:06:01;;;;;;;14.90;11.32;;;;;;;;;;5002028;28;20060;-84
2021/06/26 06:08:28;;;;;;;16.73;11.38;;;;;;;;;;5002923;28;20053;-84
2021/06/26 06:11:08;;;;;;;19.05;13.68;;;;;;;;;;5003998;28;20440;-82
2021/06/26 06:13:36;;;;;;;18.77;12.95;;;;;;;;;;5000344;28;20105;-82
2021/06/26 06:16:05;;;;;;;13.85;10.70;;;;;;;;;;5000590;28;20423;-82
2021/06/26 06:18:32;;;;;;;23.05;15.85;;;;;;;;;;5000609;28;20046;-83
2021/06/26 06:20:59;;;;;;;24.13;15.82;;;;;;;;;;5000395;28;20475;-84
2021/06/26 06:23:25;;;;;;;23.13;17.60;;;;;;;;;;4990314;28;20042;-84
2021/06/26 06:25:53;;;;;;;24.45;18.85;;;;;;;;;;4993606;28;20515;-82
2021/06/26 06:28:20;;;;;;;21.77;17.25;;;;;;;;;;4991952;28;20653;-84
2021/06/26 06:30:49;;;;;;;21.35;16.75;;;;;;;;;;4985225;28;20419;-85
2021/06/26 06:36:15;;;;;;;18.50;14.90;;;;;;;;;;4961228;28;20069;-84
2021/06/26 06:39:00;;;;;;;19.88;15.48;;;;;;;;;;5005156;28;20054;-84
2021/06/26 06:41:27;;;;;;;20.52;14.77;;;;;;;;;;5006147;28;20525;-83
2021/06/26 06:43:53;;;;;;;19.33;15.10;;;;;;;;;;5003408;28;20655;-82
2021/06/26 06:46:22;;;;;;;17.33;13.32;;;;;;;;;;5002101;28;20057;-82
2021/06/26 06:48:48;;;;;;;18.83;13.65;;;;;;;;;;4991927;28;20050;-81
2021/06/26 06:51:15;;;;;;;13.63;11.02;;;;;;;;;;4979489;28;20047;-81
2021/06/26 06:53:42;;;;;;;18.05;12.30;;;;;;;;;;4978953;28;20053;-83
2021/06/26 06:56:08;;;;;;;11.82;9.93;;;;;;;;;;4983934;28;20055;-82
2021/06/26 06:58:35;;;;;;;14.18;11.50;;;;;;;;;;4980864;28;20050;-82
2021/06/26 07:01:01;;;;;;;11.43;10.23;;;;;;;;;;4979700;28;20061;-85
2021/06/26 07:03:29;;;;;;;13.23;10.48;;;;;;;;;;4994631;28;20050;-81
2021/06/26 07:05:55;;;;;;;12.90;9.55;;;;;;;;;;4997714;28;20054;-82
2021/06/26 07:08:22;;;;;;;11.27;8.68;;;;;;;;;;4978688;28;20055;-81
2021/06/26 07:10:48;;;;;;;13.23;9.32;;;;;;;;;;4995331;28;20153;-81
2021/06/26 07:13:15;;;;;;;10.88;8.57;;;;;;;;;;5004243;28;20517;-81
2021/06/26 07:15:41;;;;;;;11.77;7.63;;;;;;;;;;5014751;28;20053;-80
2021/06/26 07:18:08;;;;;;;11.20;8.20;;;;;;;;;;5003108;28;20046;-81
2021/06/26 07:20:36;;;;;;;11.57;7.95;;;;;;;;;;4994090;28;20062;-82
2021/06/26 07:23:03;;;;;;;9.18;7.95;;;;;;;;;;4999698;28;20051;-80
2021/06/26 07:25:29;;;;;;;10.38;6.85;;;;;;;;;;5000568;28;20046;-82
2021/06/26 07:27:56;;;;;;;8.82;7.78;;;;;;;;;;5009361;28;20042;-84
2021/06/26 07:30:22;;;;;;;9.13;7.47;;;;;;;;;;5008992;28;20715;-81
2021/06/26 07:32:49;;;;;;;9.77;7.50;;;;;;;;;;5001745;28;20053;-83
2021/06/26 07:35:16;;;;;;;8.63;6.85;;;;;;;;;;5000187;28;20047;-81
2021/06/26 07:37:44;;;;;;;10.57;7.75;;;;;;;;;;4988561;28;20093;-80
2021/06/26 07:40:13;;;;;;;8.95;7.28;;;;;;;;;;4982300;28;20050;-83
2021/06/26 07:42:40;;;;;;;10.02;7.65;;;;;;;;;;4982453;28;20051;-84
2021/06/26 07:45:08;;;;;;;9.88;8.07;;;;;;;;;;4981795;28;20070;-83
2021/06/26 07:47:35;;;;;;;10.30;8.98;;;;;;;;;;4981348;28;20110;-82
2021/06/26 07:50:01;;;;;;;11.38;8.52;;;;;;;;;;4980628;28;20049;-81
2021/06/26 07:52:28;;;;;;;11.07;8.35;;;;;;;;;;4997383;28;20042;-81
2021/06/26 07:54:56;;;;;;;11.20;8.95;;;;;;;;;;4993800;28;20047;-83
2021/06/26 07:57:22;;;;;;;8.88;7.97;;;;;;;;;;4993583;28;20530;-84
2021/06/26 07:59:49;;;;;;;11.05;9.70;;;;;;;;;;4993047;28;20054;-84
2021/06/26 08:02:16;;;;;;;12.77;11.50;;;;;;;;;;4993992;28;20049;-82
2021/06/26 08:04:42;;;;;;;11.95;10.75;;;;;;;;;;4983756;28;20059;-83
2021/06/26 08:07:09;;;;;;;11.90;10.63;;;;;;;;;;4981398;28;20086;-84
2021/06/26 08:09:36;;;;;;;13.85;11.15;;;;;;;;;;4985282;28;20058;-82
2021/06/26 08:12:07;;;;;;;12.52;10.95;;;;;;;;;;4985194;28;20075;-83
2021/06/26 08:14:33;;;;;;;13.30;10.30;;;;;;;;;;4986629;28;20078;-83
2021/06/26 08:17:00;;;;;;;10.82;9.73;;;;;;;;;;4998120;28;20051;-82
2021/06/26 08:19:26;;;;;;;12.98;11.27;;;;;;;;;;4996713;28;20057;-83
2021/06/26 08:21:53;;;;;;;12.70;10.30;;;;;;;;;;5002395;28;20128;-84
2021/06/26 08:24:22;;;;;;;13.68;10.43;;;;;;;;;;5004228;28;20053;-82
2021/06/26 08:26:48;;;;;;;18.27;10.85;;;;;;;;;;5000513;28;20406;-83
2021/06/26 08:29:16;;;;;;;11.77;9.40;;;;;;;;;;5006060;28;20042;-83
2021/06/26 08:31:43;;;;;;;11.40;9.73;;;;;;;;;;4985882;28;20078;-84
2021/06/26 08:34:09;;;;;;;9.05;8.15;;;;;;;;;;4982937;28;20130;-83
2021/06/26 08:36:36;;;;;;;10.77;9.50;;;;;;;;;;4989251;28;20060;-84
2021/06/26 08:39:03;;;;;;;10.45;9.40;;;;;;;;;;5002642;28;20051;-84
2021/06/26 08:41:30;;;;;;;10.48;9.38;;;;;;;;;;5002528;28;20038;-83
2021/06/26 08:43:58;;;;;;;10.45;9.10;;;;;;;;;;5002013;28;20053;-83
2021/06/26 08:46:27;;;;;;;9.20;8.20;;;;;;;;;;5000534;28;20046;-83
2021/06/26 08:48:54;;;;;;;10.75;8.52;;;;;;;;;;4995244;28;20054;-81
2021/06/26 08:51:20;;;;;;;10.63;8.25;;;;;;;;;;4986175;28;20045;-79
2021/06/26 08:53:47;;;;;;;10.82;8.75;;;;;;;;;;4998743;28;20133;-81
2021/06/26 08:56:13;;;;;;;9.98;8.77;;;;;;;;;;4996741;28;20139;-80
2021/06/26 08:58:40;;;;;;;9.75;8.75;;;;;;;;;;4998482;28;20054;-81
2021/06/26 09:01:07;;;;;;;9.25;7.88;;;;;;;;;;4989611;28;20069;-81
2021/06/26 09:03:35;;;;;;;8.90;7.63;;;;;;;;;;4991462;28;20047;-80
2021/06/26 09:06:03;;;;;;;8.13;7.32;;;;;;;;;;4990544;28;20083;-80
2021/06/26 09:08:30;;;;;;;8.80;7.85;;;;;;;;;;4999114;28;20049;-82
2021/06/26 09:10:56;;;;;;;9.30;7.90;;;;;;;;;;4988703;28;20042;-79
2021/06/26 09:13:24;;;;;;;10.45;7.93;;;;;;;;;;5000794;28;20050;-83
2021/06/26 09:16:05;;;;;;;9.10;8.20;;;;;;;;;;5003496;28;20050;-81
2021/06/26 09:18:42;;;;;;;8.82;7.93;;;;;;;;;;5004652;28;20435;-83
2021/06/26 09:21:19;;;;;;;8.68;6.78;;;;;;;;;;4982870;28;20046;-82
2021/06/26 09:23:45;;;;;;;8.15;7.32;;;;;;;;;;5000741;28;20054;-82
2021/06/26 09:26:13;;;;;;;8.60;7.47;;;;;;;;;;4994682;28;20050;-82
2021/06/26 09:28:40;;;;;;;7.35;6.55;;;;;;;;;;4981469;28;20407;-81
2021/06/26 09:31:15;;;;;;;9.00;7.18;;;;;;;;;;4981885;28;20403;-81
2021/06/26 09:33:43;;;;;;;9.07;7.90;;;;;;;;;;4981694;28;20663;-81
2021/06/26 09:36:11;;;;;;;11.55;7.32;;;;;;;;;;4984068;28;20056;-81
2021/06/26 09:38:55;;;;;;;10.23;7.45;;;;;;;;;;4983901;28;20408;-81
2021/06/26 09:41:29;;;;;;;9.48;6.97;;;;;;;;;;4983230;28;20051;-83
2021/06/26 09:44:07;;;;;;;8.95;6.95;;;;;;;;;;4981552;28;20047;-81
2021/06/26 09:46:44;;;;;;;8.32;5.90;;;;;;;;;;4982747;28;20058;-80
2021/06/26 09:49:12;;;;;;;9.98;7.32;;;;;;;;;;4988131;28;20046;-82
2021/06/26 09:51:38;;;;;;;7.00;5.85;;;;;;;;;;5001717;28;20404;-80
2021/06/26 09:54:07;;;;;;;6.90;6.03;;;;;;;;;;4988637;28;20061;-82
2021/06/26 09:56:38;;;;;;;8.18;6.25;;;;;;;;;;4983628;28;20129;-81
2021/06/26 09:59:06;;;;;;;7.38;6.13;;;;;;;;;;4984778;28;20057;-83
2021/06/26 10:01:34;;;;;;;6.35;5.68;;;;;;;;;;4999294;28;20056;-82
2021/06/26 10:04:00;;;;;;;6.85;6.20;;;;;;;;;;5005149;28;20145;-83
2021/06/26 10:06:29;;;;;;;6.18;5.57;;;;;;;;;;5004336;28;20042;-83
2021/06/26 10:08:55;;;;;;;6.50;5.75;;;;;;;;;;5001196;28;20487;-84
2021/06/26 10:11:22;;;;;;;7.95;5.40;;;;;;;;;;5001682;28;20062;-84
2021/06/26 10:13:49;;;;;;;6.43;5.70;;;;;;;;;;5002385;28;20042;-84
2021/06/26 10:16:16;;;;;;;5.65;5.05;;;;;;;;;;5002495;28;20042;-81
2021/06/26 10:18:42;;;;;;;5.93;5.30;;;;;;;;;;5002062;28;20058;-82
2021/06/26 10:21:09;;;;;;;5.82;4.72;;;;;;;;;;5001470;28;20054;-82
2021/06/26 10:23:37;;;;;;;6.88;4.35;;;;;;;;;;4991483;28;20047;-86
2021/06/26 10:26:04;;;;;;;6.65;5.53;;;;;;;;;;4997345;28;20046;-84
2021/06/26 10:28:31;;;;;;;6.38;5.20;;;;;;;;;;5004378;28;20135;-81
2021/06/26 10:31:00;;;;;;;6.43;5.13;;;;;;;;;;4995422;28;20106;-83
2021/06/26 10:33:28;;;;;;;5.70;4.65;;;;;;;;;;4995863;28;20057;-82
2021/06/26 10:35:56;;;;;;;6.25;5.18;;;;;;;;;;4985036;28;20046;-82
2021/06/26 10:38:23;;;;;;;5.47;4.93;;;;;;;;;;4986347;28;20069;-84
2021/06/26 10:40:52;;;;;;;6.75;6.05;;;;;;;;;;4984798;28;20075;-84
2021/06/26 10:43:27;;;;;;;11.25;7.00;;;;;;;;;;4985525;28;20427;-83
2021/06/26 10:46:06;;;;;;;;;;;;;;;;;;4985882;28;20061;-83
2021/06/26 10:48:32;;;;;;;6.05;5.07;;;;;;;;;;4984821;28;19981;-83
2021/06/26 10:50:59;;;;;;;6.13;5.53;;;;;;;;;;4984314;28;20066;-82
2021/06/26 10:53:28;;;;;;;5.60;4.90;;;;;;;;;;4984776;28;20479;-82
2021/06/26 10:56:04;;;;;;;5.65;4.00;;;;;;;;;;4985570;28;20054;-85
2021/06/26 10:58:32;;;;;;;4.90;4.40;;;;;;;;;;4986907;28;20054;-81
2021/06/26 11:00:59;;;;;;;6.20;4.65;;;;;;;;;;4999965;28;20390;-82
2021/06/26 11:03:30;;;;;;;7.78;4.50;;;;;;;;;;5003187;28;20589;-85
2021/06/26 11:05:59;;;;;;;6.38;4.05;;;;;;;;;;5003785;28;20066;-85
2021/06/26 11:08:26;;;;;;;7.18;4.15;;;;;;;;;;5001030;28;20722;-86
2021/06/26 11:10:54;;;;;;;5.93;3.90;;;;;;;;;;4999875;28;20110;-87
2021/06/26 11:13:24;;;;;;;5.00;4.22;;;;;;;;;;5006802;28;20078;-85
2021/06/26 11:15:51;;;;;;;6.53;4.78;;;;;;;;;;5006058;28;20129;-87
2021/06/26 11:18:18;;;;;;;4.85;4.30;;;;;;;;;;5002092;28;20050;-84
2021/06/26 11:20:45;;;;;;;4.47;3.83;;;;;;;;;;5003578;28;20064;-85
2021/06/26 11:23:15;;;;;;;4.68;4.13;;;;;;;;;;4996647;28;20042;-83
2021/06/26 11:25:44;;;;;;;4.22;3.55;;;;;;;;;;4994214;28;20142;-84
2021/06/26 11:28:13;;;;;;;4.97;4.47;;;;;;;;;;4997063;28;20046;-84
2021/06/26 11:30:44;;;;;;;5.18;4.35;;;;;;;;;;5003822;28;20046;-86
2021/06/26 11:33:11;;;;;;;5.05;3.97;;;;;;;;;;4995367;28;20100;-87
2021/06/26 11:35:39;;;;;;;4.78;4.13;;;;;;;;;;4995348;28;20074;-86
2021/06/26 11:38:06;;;;;;;6.03;3.83;;;;;;;;;;4993196;28;20058;-88
2021/06/26 11:40:34;;;;;;;6.38;4.70;;;;;;;;;;5000080;28;20051;-87
2021/06/26 11:43:03;;;;;;;5.25;4.65;;;;;;;;;;5003156;28;20111;-82
2021/06/26 11:45:31;;;;;;;5.53;4.15;;;;;;;;;;4992888;28;20047;-85
2021/06/26 11:48:04;;;;;;;5.28;3.60;;;;;;;;;;4997512;28;20051;-86
2021/06/26 11:50:30;;;;;;;4.03;3.40;;;;;;;;;;4995588;28;20043;-85
2021/06/26 11:53:04;;;;;;;3.80;3.40;;;;;;;;;;4998074;28;20056;-86
2021/06/26 11:55:36;;;;;;;5.30;3.83;;;;;;;;;;4982095;28;20047;-86
2021/06/26 11:58:02;;;;;;;5.55;4.15;;;;;;;;;;4994529;28;20053;-86
2021/06/26 12:00:29;;;;;;;3.95;3.45;;;;;;;;;;4999286;28;20046;-84
2021/06/26 12:02:56;;;;;;;7.30;4.75;;;;;;;;;;4990756;28;20046;-86
2021/06/26 12:05:23;;;;;;;12.48;5.22;;;;;;;;;;5005437;28;20042;-87
2021/06/26 12:07:51;;;;;;;4.90;4.03;;;;;;;;;;4988497;28;20054;-86
2021/06/26 12:10:20;;;;;;;4.78;3.60;;;;;;;;;;4997180;28;20070;-83
2021/06/26 12:12:47;;;;;;;6.05;3.20;;;;;;;;;;4996772;28;20058;-81
2021/06/26 12:15:14;;;;;;;3.30;2.95;;;;;;;;;;4998459;28;20399;-84
2021/06/26 12:17:41;;;;;;;4.68;3.40;;;;;;;;;;4973863;28;20046;-84
2021/06/26 12:20:09;;;;;;;3.80;3.40;;;;;;;;;;4997851;28;20053;-85
2021/06/26 12:22:37;;;;;;;3.60;3.13;;;;;;;;;;4994023;28;20073;-85
2021/06/26 12:25:11;;;;;;;4.53;3.30;;;;;;;;;;4991756;28;20111;-83
2021/06/26 12:27:38;;;;;;;4.57;3.50;;;;;;;;;;4992501;28;20083;-84
2021/06/26 12:30:07;;;;;;;3.40;3.03;;;;;;;;;;4991235;28;20472;-86
2021/06/26 12:32:36;;;;;;;4.68;3.33;;;;;;;;;;4992953;28;20055;-84
2021/06/26 12:35:03;;;;;;;5.97;3.13;;;;;;;;;;4995209;28;20038;-86
2021/06/26 12:37:34;;;;;;;4.70;3.55;;;;;;;;;;5000402;28;20578;-84
2021/06/26 12:40:09;;;;;;;3.58;2.97;;;;;;;;;;4993955;28;20062;-84
2021/06/26 12:42:55;;;;;;;4.00;3.10;;;;;;;;;;4998305;28;20533;-82
2021/06/26 12:45:25;;;;;;;4.43;3.20;;;;;;;;;;4998302;28;20047;-83
2021/06/26 12:47:59;;;;;;;3.85;2.90;;;;;;;;;;4999554;28;20110;-87
2021/06/26 12:50:31;;;;;;;3.88;3.10;;;;;;;;;;5000308;28;20066;-86
2021/06/26 12:52:58;;;;;;;4.10;3.45;;;;;;;;;;5002102;28;20117;-84
2021/06/26 12:55:26;;;;;;;5.55;3.78;;;;;;;;;;4992039;28;20057;-87
2021/06/26 12:57:55;;;;;;;3.58;2.75;;;;;;;;;;4994538;28;20053;-86
2021/06/26 13:00:23;;;;;;;4.40;3.55;;;;;;;;;;4963399;28;20101;-84
2021/06/26 13:02:50;;;;;;;3.78;3.35;;;;;;;;;;4989210;28;20074;-86
2021/06/26 13:05:22;;;;;;;4.00;3.30;;;;;;;;;;4991512;28;20046;-88
2021/06/26 13:07:59;;;;;;;4.97;3.85;;;;;;;;;;4993631;28;20042;-87
2021/06/26 13:10:27;;;;;;;5.18;3.60;;;;;;;;;;5002371;28;20053;-86
2021/06/26 13:12:54;;;;;;;4.05;3.58;;;;;;;;;;4998422;28;20054;-85
2021/06/26 13:15:20;;;;;;;3.50;2.90;;;;;;;;;;4988161;28;20054;-86
2021/06/26 13:17:47;;;;;;;4.40;3.60;;;;;;;;;;4993506;28;20046;-89
2021/06/26 13:20:15;;;;;;;4.50;3.70;;;;;;;;;;4995484;28;20049;-85
2021/06/26 13:22:45;;;;;;;4.15;3.10;;;;;;;;;;4989954;28;20136;-85
2021/06/26 13:25:13;;;;;;;3.88;3.33;;;;;;;;;;4978606;28;20061;-84
2021/06/26 13:27:44;;;;;;;4.55;3.13;;;;;;;;;;4976679;28;20053;-85
2021/06/26 13:30:13;;;;;;;3.88;2.92;;;;;;;;;;5002991;28;20050;-86
2021/06/26 13:32:40;;;;;;;3.85;3.00;;;;;;;;;;4998265;28;20050;-85
2021/06/26 13:35:07;;;;;;;4.47;3.20;;;;;;;;;;5000341;28;20046;-84
2021/06/26 13:37:34;;;;;;;4.28;3.25;;;;;;;;;;4993674;28;20057;-84
2021/06/26 13:40:00;;;;;;;3.58;3.00;;;;;;;;;;4997648;28;20073;-84
2021/06/26 13:42:27;;;;;;;3.60;3.05;;;;;;;;;;5002667;28;20053;-86
2021/06/26 13:44:55;;;;;;;4.78;3.10;;;;;;;;;;4996937;28;20060;-85
2021/06/26 13:47:21;;;;;;;7.97;3.08;;;;;;;;;;4995909;28;20047;-87
2021/06/26 13:49:51;;;;;;;4.35;2.88;;;;;;;;;;5003164;28;20054;-87
2021/06/26 13:52:20;;;;;;;5.28;3.30;;;;;;;;;;4997402;28;20052;-87
2021/06/26 13:54:47;;;;;;;4.80;3.38;;;;;;;;;;5002342;28;20046;-87
2021/06/26 13:57:13;;;;;;;3.42;2.88;;;;;;;;;;5000010;28;20053;-87
2021/06/26 13:59:40;;;;;;;3.95;2.95;;;;;;;;;;5003638;28;20574;-87
2021/06/26 14:02:08;;;;;;;3.40;2.63;;;;;;;;;;5001938;28;20147;-86
2021/06/26 14:04:35;;;;;;;3.95;2.75;;;;;;;;;;4996683;28;20049;-85
2021/06/26 14:07:01;;;;;;;4.25;3.10;;;;;;;;;;4999920;28;20047;-87
2021/06/26 14:09:27;;;;;;;4.90;3.25;;;;;;;;;;4993795;28;20043;-88
2021/06/26 14:11:54;;;;;;;3.90;3.20;;;;;;;;;;4997045;28;20098;-86
2021/06/26 14:14:20;;;;;;;3.47;2.92;;;;;;;;;;5002766;28;20086;-85
2021/06/26 14:16:47;;;;;;;4.00;3.20;;;;;;;;;;4993714;28;20051;-84
2021/06/26 14:19:15;;;;;;;4.80;2.45;;;;;;;;;;4996069;28;20050;-84
2021/06/26 14:21:41;;;;;;;3.28;2.90;;;;;;;;;;5010123;28;20042;-84
2021/06/26 14:24:10;;;;;;;3.72;3.33;;;;;;;;;;5012374;28;20046;-83
2021/06/26 14:26:37;;;;;;;3.95;3.20;;;;;;;;;;5000319;28;20046;-85
2021/06/26 14:29:05;;;;;;;4.47;3.55;;;;;;;;;;4994919;28;20057;-85
2021/06/26 14:31:31;;;;;;;3.20;2.80;;;;;;;;;;5002339;28;20038;-85
2021/06/26 14:33:58;;;;;;;3.85;3.00;;;;;;;;;;4999283;28;20046;-85
2021/06/26 14:36:28;;;;;;;4.05;2.85;;;;;;;;;;4998408;28;20046;-85
2021/06/26 14:38:55;;;;;;;5.72;3.20;;;;;;;;;;4994000;28;20046;-86
2021/06/26 14:41:23;;;;;;;20.80;5.43;;;;;;;;;;5001810;28;20044;-84
2021/06/26 14:43:50;;;;;;;6.40;2.95;;;;;;;;;;5001037;28;20070;-85